createdAt,value
2022-10-22T00:00:26.493Z,100652.03
2022-10-22T00:03:23.932Z,100646.28
2022-10-22T00:06:20.892Z,100648.94
2022-10-22T00:09:17.833Z,100651.88
2022-10-22T00:12:15.416Z,100651.09
2022-10-22T00:15:12.496Z,100655.66
2022-10-22T00:18:09.383Z,100654.47
2022-10-22T00:21:07.239Z,100650.19
2022-10-22T00:24:05.040Z,100654.47
2022-10-22T00:27:02.564Z,100654.25
2022-10-22T00:29:59.615Z,100668.56
2022-10-22T00:32:56.525Z,100680.47
2022-10-22T00:35:53.783Z,100679.47
2022-10-22T00:38:50.748Z,100688.59
2022-10-22T00:41:48.403Z,100683.50
2022-10-22T00:44:58.792Z,100685.75
2022-10-22T00:48:02.058Z,100692.06
2022-10-22T00:51:00.679Z,100686.22
2022-10-22T00:54:01.820Z,100694.50
2022-10-22T00:56:58.636Z,100698.00
2022-10-22T00:59:56.000Z,100704.84
2022-10-22T01:02:52.759Z,100698.66
2022-10-22T01:05:59.350Z,100698.97
2022-10-22T01:09:11.344Z,100694.38
2022-10-22T01:12:27.707Z,100696.00
2022-10-22T01:15:27.138Z,100689.00
2022-10-22T01:18:34.578Z,100691.56
2022-10-22T01:21:45.666Z,100691.34
2022-10-22T01:24:50.735Z,100698.69
2022-10-22T01:27:57.317Z,100697.06
2022-10-22T01:30:54.558Z,100698.38
2022-10-22T01:33:51.719Z,100691.38
2022-10-22T01:36:48.601Z,100691.47
2022-10-22T01:39:46.609Z,100690.19
2022-10-22T01:42:43.342Z,100697.66
2022-10-22T01:45:43.856Z,100704.28
2022-10-22T01:49:12.031Z,100704.47
2022-10-22T01:52:35.757Z,100701.16
2022-10-22T01:55:47.743Z,100696.66
2022-10-22T01:59:10.533Z,100707.94
2022-10-22T02:02:29.899Z,100705.31
2022-10-22T02:05:57.327Z,100699.41
2022-10-22T02:08:54.463Z,100700.00
2022-10-22T02:11:51.585Z,100696.94
2022-10-22T02:14:48.779Z,100698.06
2022-10-22T02:17:46.238Z,100690.81
2022-10-22T02:20:43.901Z,100696.63
2022-10-22T02:23:40.571Z,100681.59
2022-10-22T02:26:43.796Z,100692.16
2022-10-22T02:29:54.018Z,100693.50
2022-10-22T02:33:18.059Z,100699.13
2022-10-22T02:36:15.798Z,100705.19
2022-10-22T02:39:12.870Z,100701.75
2022-10-22T02:42:09.878Z,100690.78
2022-10-22T02:45:07.017Z,100690.84
2022-10-22T02:48:04.126Z,100695.75
2022-10-22T02:51:01.901Z,100685.72
2022-10-22T02:53:58.618Z,100687.19
2022-10-22T02:56:55.896Z,100691.50
2022-10-22T02:59:52.861Z,100701.78
2022-10-22T03:02:50.045Z,100707.13
2022-10-22T03:05:46.606Z,100704.84
2022-10-22T03:08:43.773Z,100706.84
2022-10-22T03:11:40.645Z,100694.78
2022-10-22T03:14:37.615Z,100697.44
2022-10-22T03:17:34.997Z,100704.16
2022-10-22T03:20:32.018Z,100697.56
2022-10-22T03:23:28.841Z,100703.47
2022-10-22T03:26:25.866Z,100695.19
2022-10-22T03:29:23.196Z,100706.72
2022-10-22T03:32:20.524Z,100715.88
2022-10-22T03:35:17.943Z,100705.78
2022-10-22T03:38:14.917Z,100707.66
2022-10-22T03:41:11.636Z,100703.19
2022-10-22T03:44:08.575Z,100702.25
2022-10-22T03:47:06.296Z,100705.28
2022-10-22T03:50:05.334Z,100705.06
2022-10-22T03:53:02.805Z,100707.34
2022-10-22T03:55:59.618Z,100700.59
2022-10-22T03:58:57.747Z,100706.34
2022-10-22T04:01:55.054Z,100704.63
2022-10-22T04:04:51.966Z,100706.34
2022-10-22T04:07:48.977Z,100707.53
2022-10-22T04:10:51.937Z,100711.47
2022-10-22T04:13:49.009Z,100726.31
2022-10-22T04:16:46.240Z,100718.03
2022-10-22T04:19:43.608Z,100721.06
2022-10-22T04:22:41.078Z,100721.72
2022-10-22T04:25:38.053Z,100722.56
2022-10-22T04:28:35.394Z,100718.03
2022-10-22T04:31:32.739Z,100725.00
2022-10-22T04:34:29.773Z,100730.94
2022-10-22T04:37:26.949Z,100725.81
2022-10-22T04:40:23.952Z,100718.75
2022-10-22T04:43:20.782Z,100719.28
2022-10-22T04:46:17.938Z,100716.97
2022-10-22T04:49:14.862Z,100718.56
2022-10-22T04:52:12.755Z,100712.94
2022-10-22T04:55:10.061Z,100715.16
2022-10-22T04:58:07.024Z,100713.56
2022-10-22T05:01:26.955Z,100718.50
2022-10-22T05:04:23.810Z,100727.41
2022-10-22T05:07:20.903Z,100719.25
2022-10-22T05:10:17.966Z,100723.69
2022-10-22T05:13:14.924Z,100737.63
2022-10-22T05:16:12.048Z,100744.41
2022-10-22T05:19:08.920Z,100741.81
2022-10-22T05:22:05.923Z,100742.78
2022-10-22T05:25:02.758Z,100743.81
2022-10-22T05:28:00.374Z,100745.31
2022-10-22T05:30:58.576Z,100746.72
2022-10-22T05:33:55.736Z,100748.91
2022-10-22T05:36:52.642Z,100760.75
2022-10-22T05:39:57.615Z,100741.00
2022-10-22T05:43:03.713Z,100751.94
2022-10-22T05:46:04.016Z,100755.69
2022-10-22T05:49:02.469Z,100743.63
2022-10-22T05:51:59.655Z,100748.53
2022-10-22T05:54:57.074Z,100753.84
2022-10-22T05:57:53.810Z,100756.47
2022-10-22T06:00:50.839Z,100758.59
2022-10-22T06:03:47.819Z,100763.13
2022-10-22T06:06:51.594Z,100767.03
2022-10-22T06:09:50.305Z,100767.56
2022-10-22T06:12:48.226Z,100772.16
2022-10-22T06:15:44.713Z,100786.69
2022-10-22T06:18:42.260Z,100786.69
2022-10-22T06:21:39.057Z,100782.31
2022-10-22T06:24:35.937Z,100783.19
2022-10-22T06:27:32.656Z,100789.63
2022-10-22T06:30:30.002Z,100794.75
2022-10-22T06:33:27.791Z,100793.72
2022-10-22T06:36:24.908Z,100793.84
2022-10-22T06:39:22.179Z,100806.09
2022-10-22T06:42:19.224Z,100802.53
2022-10-22T06:45:17.746Z,100812.00
2022-10-22T06:48:15.326Z,100813.69
2022-10-22T06:51:12.147Z,100821.09
2022-10-22T06:54:08.895Z,100829.16
2022-10-22T06:57:06.211Z,100830.50
2022-10-22T07:00:04.371Z,100831.53
2022-10-22T07:03:02.057Z,100836.53
2022-10-22T07:06:00.833Z,100840.72
2022-10-22T07:08:58.747Z,100842.28
2022-10-22T07:11:56.200Z,100838.28
2022-10-22T07:14:53.142Z,100841.53
2022-10-22T07:17:51.697Z,100843.50
2022-10-22T07:20:49.581Z,100849.16
2022-10-22T07:23:46.805Z,100843.88
2022-10-22T07:26:43.946Z,100857.50
2022-10-22T07:29:41.046Z,100852.78
2022-10-22T07:32:37.862Z,100849.63
2022-10-22T07:35:34.648Z,100858.34
2022-10-22T07:38:31.983Z,100860.44
2022-10-22T07:41:29.430Z,100866.63
2022-10-22T07:44:26.781Z,100867.84
2022-10-22T07:47:24.068Z,100872.75
2022-10-22T07:50:20.949Z,100873.81
2022-10-22T07:53:18.107Z,100875.97
2022-10-22T07:56:15.154Z,100883.38
2022-10-22T07:59:12.021Z,100884.28
2022-10-22T08:02:10.195Z,100886.97
2022-10-22T08:05:07.882Z,100880.34
2022-10-22T08:08:07.939Z,100878.25
2022-10-22T08:11:05.645Z,100881.44
2022-10-22T08:14:02.930Z,100885.34
2022-10-22T08:17:00.234Z,100882.22
2022-10-22T08:19:57.147Z,100892.88
2022-10-22T08:22:53.931Z,100897.59
2022-10-22T08:25:51.235Z,100887.06
2022-10-22T08:28:47.821Z,100888.53
2022-10-22T08:31:45.207Z,100900.19
2022-10-22T08:34:41.793Z,100899.13
2022-10-22T08:37:39.780Z,100896.44
2022-10-22T08:40:38.797Z,100897.69
2022-10-22T08:43:50.386Z,100896.84
2022-10-22T08:47:03.337Z,100907.91
2022-10-22T08:50:00.192Z,100914.38
2022-10-22T08:52:57.735Z,100908.28
2022-10-22T08:55:54.782Z,100909.84
2022-10-22T08:59:04.848Z,100910.84
2022-10-22T09:02:02.568Z,100907.56
2022-10-22T09:05:33.094Z,100906.75
2022-10-22T09:08:29.902Z,100906.38
2022-10-22T09:11:28.563Z,100909.56
2022-10-22T09:14:25.955Z,100913.38
2022-10-22T09:17:35.723Z,100918.69
2022-10-22T09:20:43.969Z,100915.53
2022-10-22T09:23:58.044Z,100921.22
2022-10-22T09:26:56.438Z,100925.28
2022-10-22T09:29:52.899Z,100917.09
2022-10-22T09:33:11.152Z,100927.22
2022-10-22T09:36:08.434Z,100929.66
2022-10-22T09:39:05.323Z,100923.56
2022-10-22T09:42:02.106Z,100922.34
2022-10-22T09:44:59.608Z,100939.16
2022-10-22T09:48:20.570Z,100936.28
2022-10-22T09:51:35.823Z,100945.25
2022-10-22T09:54:33.058Z,100943.59
2022-10-22T09:57:30.223Z,100952.09
2022-10-22T10:00:27.821Z,100937.91
2022-10-22T10:03:27.324Z,100947.38
2022-10-22T10:06:24.045Z,100951.97
2022-10-22T10:09:27.893Z,100962.25
2022-10-22T10:12:49.944Z,100963.72
2022-10-22T10:15:55.117Z,100973.53
2022-10-22T10:19:21.319Z,100977.97
2022-10-22T10:22:42.374Z,100987.38
2022-10-22T10:25:51.994Z,100989.34
2022-10-22T10:29:10.494Z,100989.66
2022-10-22T10:32:31.278Z,100990.47
2022-10-22T10:35:57.150Z,100991.72
2022-10-22T10:39:00.483Z,100985.22
2022-10-22T10:42:05.034Z,100987.72
2022-10-22T10:45:24.924Z,100988.19
2022-10-22T10:48:31.329Z,100988.56
2022-10-22T10:51:47.686Z,100986.06
2022-10-22T10:55:12.341Z,100993.44
2022-10-22T10:58:21.857Z,100989.53
2022-10-22T11:01:27.980Z,100994.72
2022-10-22T11:04:34.799Z,100998.34
2022-10-22T11:07:45.417Z,101001.66
2022-10-22T11:11:00.675Z,100994.63
2022-10-22T11:14:03.318Z,100997.84
2022-10-22T11:17:06.223Z,101013.00
2022-10-22T11:20:25.731Z,101003.22
2022-10-22T11:23:34.435Z,101006.25
2022-10-22T11:26:31.206Z,101014.50
2022-10-22T11:29:32.883Z,101016.41
2022-10-22T11:32:29.798Z,101006.88
2022-10-22T11:35:28.746Z,101021.16
2022-10-22T11:38:26.231Z,101015.47
2022-10-22T11:41:30.587Z,101015.47
2022-10-22T11:44:30.186Z,101032.47
2022-10-22T11:47:54.502Z,101035.78
2022-10-22T11:50:56.757Z,101041.50
2022-10-22T11:53:57.678Z,101030.22
2022-10-22T11:57:13.435Z,101032.72
2022-10-22T12:00:31.399Z,101017.56
2022-10-22T12:03:31.219Z,101032.66
2022-10-22T12:06:28.691Z,101032.78
2022-10-22T12:09:30.163Z,101032.88
2022-10-22T12:12:29.543Z,101034.44
2022-10-22T12:15:27.176Z,101040.19
2022-10-22T12:18:31.658Z,101035.72
2022-10-22T12:21:29.184Z,101037.38
2022-10-22T12:24:26.224Z,101039.38
2022-10-22T12:27:25.168Z,101042.25
2022-10-22T12:30:25.054Z,101041.81
2022-10-22T12:33:23.280Z,101040.50
2022-10-22T12:36:20.323Z,101034.38
2022-10-22T12:39:36.485Z,101044.09
2022-10-22T12:42:33.229Z,101041.97
2022-10-22T12:45:31.645Z,101042.84
2022-10-22T12:48:30.974Z,101030.59
2022-10-22T12:51:28.372Z,101038.16
2022-10-22T12:54:29.718Z,101042.16
2022-10-22T12:57:27.466Z,101047.44
2022-10-22T13:00:26.621Z,101047.84
2022-10-22T13:03:30.787Z,101052.16
2022-10-22T13:06:28.556Z,101050.94
2022-10-22T13:09:27.669Z,101046.34
2022-10-22T13:12:35.251Z,101051.56
2022-10-22T13:15:37.370Z,101052.03
2022-10-22T13:18:34.125Z,101063.47
2022-10-22T13:21:37.714Z,101059.81
2022-10-22T13:24:39.161Z,101056.97
2022-10-22T13:27:36.559Z,101060.25
2022-10-22T13:30:37.024Z,101059.50
2022-10-22T13:33:35.052Z,101053.72
2022-10-22T13:36:32.423Z,101052.94
2022-10-22T13:39:29.121Z,101047.72
2022-10-22T13:42:26.603Z,101043.97
2022-10-22T13:45:24.681Z,101056.25
2022-10-22T13:48:22.935Z,101062.97
2022-10-22T13:51:24.835Z,101065.06
2022-10-22T13:54:23.205Z,101061.00
2022-10-22T13:57:20.226Z,101063.41
2022-10-22T14:00:19.334Z,101070.78
2022-10-22T14:03:17.182Z,101080.28
2022-10-22T14:06:14.773Z,101089.53
2022-10-22T14:09:14.129Z,101084.06
2022-10-22T14:12:15.879Z,101088.47
2022-10-22T14:15:13.860Z,101090.53
2022-10-22T14:18:25.579Z,101095.03
2022-10-22T14:21:22.490Z,101091.72
2022-10-22T14:24:19.467Z,101100.75
2022-10-22T14:27:16.431Z,101089.00
2022-10-22T14:30:17.883Z,101097.28
2022-10-22T14:33:37.016Z,101091.09
2022-10-22T14:36:34.439Z,101088.94
2022-10-22T14:39:31.416Z,101093.81
2022-10-22T14:42:28.842Z,101097.91
2022-10-22T14:45:26.912Z,101106.03
2022-10-22T14:48:24.606Z,101101.16
2022-10-22T14:51:21.468Z,101094.63
2022-10-22T14:54:18.506Z,101105.22
2022-10-22T14:57:16.601Z,101109.31
2022-10-22T15:00:17.934Z,101100.72
2022-10-22T15:03:15.200Z,101110.16
2022-10-22T15:06:11.999Z,101104.34
2022-10-22T15:09:09.311Z,101102.31
2022-10-22T15:12:06.313Z,101103.50
2022-10-22T15:15:03.630Z,101116.88
2022-10-22T15:18:00.379Z,101113.66
2022-10-22T15:21:00.572Z,101120.97
2022-10-22T15:23:57.647Z,101121.78
2022-10-22T15:26:54.886Z,101121.81
2022-10-22T15:29:52.476Z,101124.31
2022-10-22T15:32:49.502Z,101116.78
2022-10-22T15:35:45.983Z,101124.59
2022-10-22T15:38:43.378Z,101124.94
2022-10-22T15:41:40.246Z,101131.75
2022-10-22T15:44:37.646Z,101138.44
2022-10-22T15:47:34.314Z,101138.41
2022-10-22T15:50:31.339Z,101139.63
2022-10-22T15:53:28.029Z,101138.66
2022-10-22T15:56:27.236Z,101139.09
2022-10-22T15:59:24.641Z,101140.28
2022-10-22T16:02:21.632Z,101148.53
2022-10-22T16:05:18.417Z,101148.34
2022-10-22T16:08:15.284Z,101152.41
2022-10-22T16:11:12.445Z,101142.81
2022-10-22T16:14:10.922Z,101152.88
2022-10-22T16:17:08.444Z,101154.13
2022-10-22T16:20:05.894Z,101153.84
2022-10-22T16:23:03.187Z,101161.63
2022-10-22T16:26:02.287Z,101173.13
2022-10-22T16:28:59.167Z,101179.00
2022-10-22T16:31:56.411Z,101181.41
2022-10-22T16:34:53.593Z,101179.41
2022-10-22T16:37:50.674Z,101187.66
2022-10-22T16:40:47.095Z,101189.31
2022-10-22T16:43:46.999Z,101201.63
2022-10-22T16:46:44.265Z,101200.25
2022-10-22T16:49:41.756Z,101203.13
2022-10-22T16:52:38.531Z,101210.19
2022-10-22T16:55:38.880Z,101207.03
2022-10-22T16:58:36.707Z,101205.38
2022-10-22T17:01:37.881Z,101211.47
2022-10-22T17:04:37.425Z,101216.31
2022-10-22T17:07:34.666Z,101221.44
2022-10-22T17:10:31.522Z,101222.22
2022-10-22T17:13:28.389Z,101228.25
2022-10-22T17:16:25.413Z,101226.38
2022-10-22T17:19:22.273Z,101231.13
2022-10-22T17:22:19.707Z,101230.28
2022-10-22T17:25:17.682Z,101232.81
2022-10-22T17:28:14.446Z,101230.00
2022-10-22T17:31:17.120Z,101227.19
2022-10-22T17:34:17.258Z,101224.59
2022-10-22T17:37:14.198Z,101225.75
2022-10-22T17:40:11.866Z,101226.13
2022-10-22T17:43:08.856Z,101236.25
2022-10-22T17:46:07.369Z,101233.53
2022-10-22T17:49:06.986Z,101238.47
2022-10-22T17:52:04.568Z,101253.78
2022-10-22T17:55:01.620Z,101259.16
2022-10-22T17:57:58.835Z,101263.19
2022-10-22T18:00:55.279Z,101262.34
2022-10-22T18:03:53.234Z,101250.00
2022-10-22T18:06:50.566Z,101257.91
2022-10-22T18:09:47.812Z,101253.44
2022-10-22T18:12:44.598Z,101266.50
2022-10-22T18:15:41.701Z,101263.53
2022-10-22T18:18:38.819Z,101262.97
2022-10-22T18:21:35.293Z,101283.16
2022-10-22T18:24:33.091Z,101274.94
2022-10-22T18:27:30.717Z,101264.03
2022-10-22T18:30:27.695Z,101276.44
2022-10-22T18:33:25.333Z,101271.75
2022-10-22T18:36:23.908Z,101271.47
2022-10-22T18:39:21.429Z,101275.53
2022-10-22T18:42:18.906Z,101287.53
2022-10-22T18:45:16.585Z,101282.81
2022-10-22T18:48:15.176Z,101281.75
2022-10-22T18:51:12.522Z,101275.72
2022-10-22T18:54:22.773Z,101290.69
2022-10-22T18:57:25.010Z,101290.66
2022-10-22T19:00:22.545Z,101295.28
2022-10-22T19:03:19.701Z,101288.28
2022-10-22T19:06:18.691Z,101293.31
2022-10-22T19:09:15.815Z,101292.34
2022-10-22T19:12:15.237Z,101295.75
2022-10-22T19:15:12.570Z,101286.34
2022-10-22T19:18:09.384Z,101286.28
2022-10-22T19:21:06.809Z,101289.72
2022-10-22T19:24:03.787Z,101290.66
2022-10-22T19:27:00.604Z,101292.97
2022-10-22T19:29:57.602Z,101292.41
2022-10-22T19:32:54.647Z,101289.22
2022-10-22T19:35:51.585Z,101289.38
2022-10-22T19:38:49.066Z,101287.63
2022-10-22T19:41:46.771Z,101286.31
2022-10-22T19:44:43.397Z,101277.72
2022-10-22T19:47:42.189Z,101285.50
2022-10-22T19:50:39.752Z,101294.94
2022-10-22T19:53:38.244Z,101296.50
2022-10-22T19:56:35.876Z,101310.94
2022-10-22T19:59:34.012Z,101296.41
2022-10-22T20:02:31.990Z,101306.66
2022-10-22T20:05:29.632Z,101301.81
2022-10-22T20:08:26.794Z,101298.19
2022-10-22T20:11:26.205Z,101290.13
2022-10-22T20:14:23.590Z,101298.25
2022-10-22T20:17:21.153Z,101313.56
2022-10-22T20:20:20.931Z,101309.22
2022-10-22T20:23:18.518Z,101307.25
2022-10-22T20:26:15.560Z,101305.09
2022-10-22T20:29:13.950Z,101308.78
2022-10-22T20:32:10.474Z,101302.16
2022-10-22T20:35:07.851Z,101317.81
2022-10-22T20:38:05.355Z,101311.06
2022-10-22T20:41:07.313Z,101315.56
2022-10-22T20:44:04.825Z,101313.31
2022-10-22T20:47:01.827Z,101316.16
2022-10-22T20:49:58.377Z,101321.34
2022-10-22T20:52:55.517Z,101314.28
2022-10-22T20:55:54.312Z,101308.72
2022-10-22T20:58:56.659Z,101312.94
2022-10-22T21:01:53.807Z,101308.41
2022-10-22T21:04:50.557Z,101304.41
2022-10-22T21:07:47.451Z,101305.88
2022-10-22T21:10:46.504Z,101304.16
2022-10-22T21:13:43.637Z,101304.34
2022-10-22T21:16:44.845Z,101307.94
2022-10-22T21:19:41.455Z,101300.75
2022-10-22T21:22:38.769Z,101294.69
2022-10-22T21:25:38.501Z,101295.81
2022-10-22T21:28:39.103Z,101299.78
2022-10-22T21:31:37.207Z,101303.03
2022-10-22T21:34:38.185Z,101303.41
2022-10-22T21:37:36.689Z,101308.25
2022-10-22T21:40:36.717Z,101302.53
2022-10-22T21:43:34.225Z,101303.31
2022-10-22T21:46:31.773Z,101302.31
2022-10-22T21:49:28.829Z,101310.13
2022-10-22T21:52:25.712Z,101309.84
2022-10-22T21:55:22.654Z,101313.84
2022-10-22T21:58:19.696Z,101318.56
2022-10-22T22:01:16.939Z,101313.69
2022-10-22T22:04:14.480Z,101313.69
2022-10-22T22:07:11.788Z,101314.22
2022-10-22T22:10:09.482Z,101327.22
2022-10-22T22:13:06.781Z,101321.56
2022-10-22T22:16:13.830Z,101324.19
2022-10-22T22:19:10.681Z,101327.00
2022-10-22T22:22:08.042Z,101326.09
2022-10-22T22:25:06.097Z,101321.38
2022-10-22T22:28:04.187Z,101327.97
2022-10-22T22:31:01.971Z,101322.84
2022-10-22T22:34:00.124Z,101318.25
2022-10-22T22:36:57.524Z,101330.50
2022-10-22T22:39:55.165Z,101324.91
2022-10-22T22:42:52.971Z,101327.06
2022-10-22T22:46:01.881Z,101325.31
2022-10-22T22:48:58.738Z,101324.97
2022-10-22T22:51:55.637Z,101338.91
2022-10-22T22:54:52.499Z,101330.84
2022-10-22T22:57:50.007Z,101326.66
2022-10-22T23:00:46.674Z,101326.25
2022-10-22T23:03:44.526Z,101328.47
2022-10-22T23:06:41.950Z,101311.34
2022-10-22T23:09:38.838Z,101315.53
2022-10-22T23:12:35.859Z,101318.84
2022-10-22T23:15:32.752Z,101316.38
2022-10-22T23:18:29.371Z,101314.25
2022-10-22T23:21:31.901Z,101323.50
2022-10-22T23:24:29.005Z,101320.66
2022-10-22T23:27:25.904Z,101322.03
2022-10-22T23:30:22.669Z,101320.25
2022-10-22T23:33:19.542Z,101316.66
2022-10-22T23:36:16.948Z,101307.88
2022-10-22T23:39:15.843Z,101314.78
2022-10-22T23:42:12.776Z,101311.66
2022-10-22T23:45:09.850Z,101308.66
2022-10-22T23:48:06.865Z,101306.41
2022-10-22T23:51:08.014Z,101305.91
2022-10-22T23:54:06.469Z,101300.31
2022-10-22T23:57:03.999Z,101296.13
